sensor_id;sensor_type;location;lat;lon;timestamp;P1;durP1;ratioP1;P2;durP2;ratioP2
37903;SDS011;23738;50.422;18.758;2022-08-01T00:00:41;7.83;;;2.40;;
37903;SDS011;23738;50.422;18.758;2022-08-01T00:03:07;5.90;;;2.10;;
37903;SDS011;23738;50.422;18.758;2022-08-01T00:05:33;9.35;;;2.58;;
37903;SDS011;23738;50.422;18.758;2022-08-01T00:07:59;9.60;;;2.27;;
37903;SDS011;23738;50.422;18.758;2022-08-01T00:10:25;6.45;;;2.52;;
37903;SDS011;23738;50.422;18.758;2022-08-01T00:12:51;6.37;;;2.55;;
37903;SDS011;23738;50.422;18.758;2022-08-01T00:15:17;3.52;;;1.70;;
37903;SDS011;23738;50.422;18.758;2022-08-01T00:17:44;3.80;;;1.65;;
37903;SDS011;23738;50.422;18.758;2022-08-01T00:20:11;7.50;;;2.45;;
37903;SDS011;23738;50.422;18.758;2022-08-01T00:22:38;3.35;;;2.45;;
37903;SDS011;23738;50.422;18.758;2022-08-01T00:25:05;3.62;;;2.02;;
37903;SDS011;23738;50.422;18.758;2022-08-01T00:27:32;5.75;;;2.40;;
37903;SDS011;23738;50.422;18.758;2022-08-01T00:29:58;3.10;;;2.27;;
37903;SDS011;23738;50.422;18.758;2022-08-01T00:32:24;4.12;;;1.82;;
37903;SDS011;23738;50.422;18.758;2022-08-01T00:34:50;4.17;;;2.30;;
37903;SDS011;23738;50.422;18.758;2022-08-01T00:37:16;5.08;;;2.52;;
37903;SDS011;23738;50.422;18.758;2022-08-01T00:39:42;9.43;;;2.58;;
37903;SDS011;23738;50.422;18.758;2022-08-01T00:42:11;3.52;;;2.20;;
37903;SDS011;23738;50.422;18.758;2022-08-01T00:44:38;5.53;;;2.65;;
37903;SDS011;23738;50.422;18.758;2022-08-01T00:47:05;4.47;;;2.15;;
37903;SDS011;23738;50.422;18.758;2022-08-01T00:49:31;5.78;;;2.52;;
37903;SDS011;23738;50.422;18.758;2022-08-01T00:51:58;7.83;;;3.10;;
37903;SDS011;23738;50.422;18.758;2022-08-01T00:54:24;4.58;;;2.45;;
37903;SDS011;23738;50.422;18.758;2022-08-01T00:56:52;6.10;;;2.62;;
37903;SDS011;23738;50.422;18.758;2022-08-01T00:59:19;4.97;;;2.50;;
37903;SDS011;23738;50.422;18.758;2022-08-01T01:01:47;2.58;;;1.80;;
37903;SDS011;23738;50.422;18.758;2022-08-01T01:04:14;3.47;;;2.70;;
37903;SDS011;23738;50.422;18.758;2022-08-01T01:09:24;14.18;;;3.02;;
37903;SDS011;23738;50.422;18.758;2022-08-01T01:14:44;5.92;;;2.42;;
37903;SDS011;23738;50.422;18.758;2022-08-01T01:17:44;3.52;;;2.20;;
37903;SDS011;23738;50.422;18.758;2022-08-01T01:20:23;3.95;;;2.10;;
37903;SDS011;23738;50.422;18.758;2022-08-01T01:29:32;4.65;;;2.42;;
37903;SDS011;23738;50.422;18.758;2022-08-01T01:31:50;3.22;;;2.92;;
37903;SDS011;23738;50.422;18.758;2022-08-01T01:34:26;3.42;;;2.50;;
37903;SDS011;23738;50.422;18.758;2022-08-01T01:36:54;6.25;;;3.85;;
37903;SDS011;23738;50.422;18.758;2022-08-01T01:39:21;3.70;;;3.17;;
37903;SDS011;23738;50.422;18.758;2022-08-01T01:41:51;3.45;;;3.02;;
37903;SDS011;23738;50.422;18.758;2022-08-01T01:44:19;3.20;;;2.90;;
37903;SDS011;23738;50.422;18.758;2022-08-01T01:46:45;10.38;;;3.20;;
37903;SDS011;23738;50.422;18.758;2022-08-01T01:49:12;5.05;;;2.77;;
37903;SDS011;23738;50.422;18.758;2022-08-01T01:51:40;4.47;;;2.42;;
37903;SDS011;23738;50.422;18.758;2022-08-01T01:54:08;6.35;;;2.95;;
37903;SDS011;23738;50.422;18.758;2022-08-01T01:56:35;2.80;;;2.55;;
37903;SDS011;23738;50.422;18.758;2022-08-01T01:59:03;4.40;;;2.72;;
37903;SDS011;23738;50.422;18.758;2022-08-01T02:01:31;3.85;;;2.62;;
37903;SDS011;23738;50.422;18.758;2022-08-01T02:03:57;4.08;;;3.47;;
37903;SDS011;23738;50.422;18.758;2022-08-01T02:06:27;3.25;;;2.55;;
37903;SDS011;23738;50.422;18.758;2022-08-01T02:08:55;4.97;;;2.67;;
37903;SDS011;23738;50.422;18.758;2022-08-01T02:11:21;4.08;;;2.70;;
37903;SDS011;23738;50.422;18.758;2022-08-01T02:13:52;6.30;;;2.50;;
37903;SDS011;23738;50.422;18.758;2022-08-01T02:16:24;3.20;;;2.65;;
37903;SDS011;23738;50.422;18.758;2022-08-01T02:18:54;4.00;;;3.45;;
37903;SDS011;23738;50.422;18.758;2022-08-01T02:21:23;3.33;;;2.85;;
37903;SDS011;23738;50.422;18.758;2022-08-01T02:24:22;3.67;;;2.87;;
37903;SDS011;23738;50.422;18.758;2022-08-01T02:27:04;8.45;;;2.72;;
37903;SDS011;23738;50.422;18.758;2022-08-01T02:29:43;3.25;;;2.60;;
37903;SDS011;23738;50.422;18.758;2022-08-01T02:32:25;7.37;;;3.02;;
37903;SDS011;23738;50.422;18.758;2022-08-01T02:35:11;3.67;;;2.83;;
37903;SDS011;23738;50.422;18.758;2022-08-01T02:37:41;3.37;;;2.67;;
37903;SDS011;23738;50.422;18.758;2022-08-01T02:40:08;3.62;;;2.15;;
37903;SDS011;23738;50.422;18.758;2022-08-01T02:42:37;2.70;;;2.50;;
37903;SDS011;23738;50.422;18.758;2022-08-01T02:45:08;8.48;;;2.90;;
37903;SDS011;23738;50.422;18.758;2022-08-01T02:47:36;5.42;;;3.47;;
37903;SDS011;23738;50.422;18.758;2022-08-01T02:50:04;4.30;;;2.95;;
37903;SDS011;23738;50.422;18.758;2022-08-01T02:52:33;7.03;;;2.87;;
37903;SDS011;23738;50.422;18.758;2022-08-01T02:55:01;3.62;;;1.52;;
37903;SDS011;23738;50.422;18.758;2022-08-01T02:57:27;4.03;;;2.33;;
37903;SDS011;23738;50.422;18.758;2022-08-01T02:59:56;3.05;;;2.52;;
37903;SDS011;23738;50.422;18.758;2022-08-01T03:02:24;4.30;;;3.02;;
37903;SDS011;23738;50.422;18.758;2022-08-01T03:04:51;3.77;;;3.20;;
37903;SDS011;23738;50.422;18.758;2022-08-01T03:07:18;4.00;;;2.60;;
37903;SDS011;23738;50.422;18.758;2022-08-01T03:09:46;3.35;;;2.40;;
37903;SDS011;23738;50.422;18.758;2022-08-01T03:12:17;2.22;;;1.90;;
37903;SDS011;23738;50.422;18.758;2022-08-01T03:14:48;3.90;;;2.35;;
37903;SDS011;23738;50.422;18.758;2022-08-01T03:17:18;3.83;;;2.60;;
37903;SDS011;23738;50.422;18.758;2022-08-01T03:19:46;3.62;;;2.42;;
37903;SDS011;23738;50.422;18.758;2022-08-01T03:22:14;4.62;;;2.12;;
37903;SDS011;23738;50.422;18.758;2022-08-01T03:24:42;6.22;;;2.60;;
37903;SDS011;23738;50.422;18.758;2022-08-01T03:27:11;2.08;;;1.80;;
37903;SDS011;23738;50.422;18.758;2022-08-01T03:29:39;3.00;;;1.72;;
37903;SDS011;23738;50.422;18.758;2022-08-01T03:32:06;2.67;;;2.37;;
37903;SDS011;23738;50.422;18.758;2022-08-01T03:34:35;3.12;;;2.83;;
37903;SDS011;23738;50.422;18.758;2022-08-01T03:39:55;2.60;;;2.40;;
37903;SDS011;23738;50.422;18.758;2022-08-01T03:42:14;3.17;;;2.50;;
37903;SDS011;23738;50.422;18.758;2022-08-01T03:44:47;2.92;;;2.15;;
37903;SDS011;23738;50.422;18.758;2022-08-01T03:47:15;2.55;;;2.35;;
37903;SDS011;23738;50.422;18.758;2022-08-01T03:49:43;5.47;;;2.67;;
37903;SDS011;23738;50.422;18.758;2022-08-01T03:52:12;5.58;;;2.50;;
37903;SDS011;23738;50.422;18.758;2022-08-01T03:54:44;3.27;;;2.80;;
37903;SDS011;23738;50.422;18.758;2022-08-01T03:57:13;3.10;;;1.90;;
37903;SDS011;23738;50.422;18.758;2022-08-01T03:59:40;4.10;;;1.92;;
37903;SDS011;23738;50.422;18.758;2022-08-01T04:02:08;5.15;;;2.45;;
37903;SDS011;23738;50.422;18.758;2022-08-01T04:04:34;4.12;;;2.12;;
37903;SDS011;23738;50.422;18.758;2022-08-01T04:07:01;5.37;;;2.35;;
37903;SDS011;23738;50.422;18.758;2022-08-01T04:09:32;4.53;;;2.95;;
37903;SDS011;23738;50.422;18.758;2022-08-01T04:11:58;4.53;;;2.45;;
37903;SDS011;23738;50.422;18.758;2022-08-01T04:14:26;2.20;;;2.00;;
37903;SDS011;23738;50.422;18.758;2022-08-01T04:16:55;6.85;;;2.42;;
37903;SDS011;23738;50.422;18.758;2022-08-01T04:19:21;4.53;;;2.50;;
37903;SDS011;23738;50.422;18.758;2022-08-01T04:21:47;17.32;;;3.17;;
37903;SDS011;23738;50.422;18.758;2022-08-01T04:24:13;2.98;;;2.62;;
37903;SDS011;23738;50.422;18.758;2022-08-01T04:26:43;4.25;;;3.22;;
37903;SDS011;23738;50.422;18.758;2022-08-01T04:29:11;2.80;;;2.58;;
37903;SDS011;23738;50.422;18.758;2022-08-01T04:31:42;13.58;;;3.00;;
37903;SDS011;23738;50.422;18.758;2022-08-01T04:34:10;3.52;;;2.75;;
37903;SDS011;23738;50.422;18.758;2022-08-01T04:36:39;3.98;;;3.37;;
37903;SDS011;23738;50.422;18.758;2022-08-01T04:39:07;5.95;;;3.62;;
37903;SDS011;23738;50.422;18.758;2022-08-01T04:41:34;4.85;;;3.75;;
37903;SDS011;23738;50.422;18.758;2022-08-01T04:44:02;3.70;;;3.25;;
37903;SDS011;23738;50.422;18.758;2022-08-01T04:46:29;3.87;;;3.10;;
37903;SDS011;23738;50.422;18.758;2022-08-01T04:48:55;7.92;;;4.58;;
37903;SDS011;23738;50.422;18.758;2022-08-01T04:51:21;7.83;;;5.83;;
37903;SDS011;23738;50.422;18.758;2022-08-01T04:53:47;6.00;;;5.40;;
37903;SDS011;23738;50.422;18.758;2022-08-01T04:56:16;7.22;;;6.25;;
37903;SDS011;23738;50.422;18.758;2022-08-01T04:58:43;8.10;;;6.20;;
37903;SDS011;23738;50.422;18.758;2022-08-01T05:01:10;11.43;;;5.97;;
37903;SDS011;23738;50.422;18.758;2022-08-01T05:03:36;9.88;;;6.17;;
37903;SDS011;23738;50.422;18.758;2022-08-01T05:06:02;5.97;;;5.37;;
37903;SDS011;23738;50.422;18.758;2022-08-01T05:08:29;9.88;;;7.35;;
37903;SDS011;23738;50.422;18.758;2022-08-01T05:10:55;7.92;;;7.22;;
37903;SDS011;23738;50.422;18.758;2022-08-01T05:13:21;8.10;;;6.90;;
37903;SDS011;23738;50.422;18.758;2022-08-01T05:15:47;9.30;;;6.83;;
37903;SDS011;23738;50.422;18.758;2022-08-01T05:18:12;9.13;;;6.90;;
37903;SDS011;23738;50.422;18.758;2022-08-01T05:20:38;12.13;;;6.83;;
37903;SDS011;23738;50.422;18.758;2022-08-01T05:23:06;9.30;;;7.28;;
37903;SDS011;23738;50.422;18.758;2022-08-01T05:25:32;15.80;;;7.42;;
37903;SDS011;23738;50.422;18.758;2022-08-01T05:27:58;9.45;;;5.87;;
37903;SDS011;23738;50.422;18.758;2022-08-01T05:30:24;7.70;;;5.67;;
37903;SDS011;23738;50.422;18.758;2022-08-01T05:32:50;11.65;;;6.42;;
37903;SDS011;23738;50.422;18.758;2022-08-01T05:35:16;6.97;;;6.03;;
37903;SDS011;23738;50.422;18.758;2022-08-01T05:37:42;8.23;;;6.92;;
37903;SDS011;23738;50.422;18.758;2022-08-01T05:40:09;10.45;;;6.00;;
37903;SDS011;23738;50.422;18.758;2022-08-01T05:42:36;9.58;;;6.17;;
37903;SDS011;23738;50.422;18.758;2022-08-01T05:45:01;11.05;;;5.85;;
37903;SDS011;23738;50.422;18.758;2022-08-01T05:47:27;8.33;;;5.97;;
37903;SDS011;23738;50.422;18.758;2022-08-01T05:49:53;10.70;;;5.33;;
37903;SDS011;23738;50.422;18.758;2022-08-01T05:52:19;6.25;;;5.65;;
37903;SDS011;23738;50.422;18.758;2022-08-01T05:54:45;6.55;;;4.92;;
37903;SDS011;23738;50.422;18.758;2022-08-01T05:57:10;5.75;;;5.15;;
37903;SDS011;23738;50.422;18.758;2022-08-01T05:59:38;7.50;;;4.67;;
37903;SDS011;23738;50.422;18.758;2022-08-01T06:02:04;6.35;;;4.72;;
37903;SDS011;23738;50.422;18.758;2022-08-01T06:04:30;8.98;;;4.95;;
37903;SDS011;23738;50.422;18.758;2022-08-01T06:06:55;11.90;;;5.17;;
37903;SDS011;23738;50.422;18.758;2022-08-01T06:09:21;9.13;;;5.80;;
37903;SDS011;23738;50.422;18.758;2022-08-01T06:11:47;5.90;;;4.78;;
37903;SDS011;23738;50.422;18.758;2022-08-01T06:14:13;7.08;;;3.98;;
37903;SDS011;23738;50.422;18.758;2022-08-01T06:16:39;4.03;;;3.62;;
37903;SDS011;23738;50.422;18.758;2022-08-01T06:19:05;8.48;;;4.08;;
37903;SDS011;23738;50.422;18.758;2022-08-01T06:21:31;7.97;;;3.60;;
37903;SDS011;23738;50.422;18.758;2022-08-01T06:23:57;6.00;;;3.12;;
37903;SDS011;23738;50.422;18.758;2022-08-01T06:26:23;4.00;;;3.30;;
37903;SDS011;23738;50.422;18.758;2022-08-01T06:28:49;6.90;;;3.80;;
37903;SDS011;23738;50.422;18.758;2022-08-01T06:31:15;6.53;;;3.60;;
37903;SDS011;23738;50.422;18.758;2022-08-01T06:33:40;6.90;;;3.83;;
37903;SDS011;23738;50.422;18.758;2022-08-01T06:36:06;7.33;;;3.72;;
37903;SDS011;23738;50.422;18.758;2022-08-01T06:38:32;4.60;;;3.62;;
37903;SDS011;23738;50.422;18.758;2022-08-01T06:40:58;6.28;;;3.60;;
37903;SDS011;23738;50.422;18.758;2022-08-01T06:43:23;5.78;;;3.98;;
37903;SDS011;23738;50.422;18.758;2022-08-01T06:45:49;4.80;;;4.03;;
37903;SDS011;23738;50.422;18.758;2022-08-01T06:48:15;9.60;;;3.90;;
37903;SDS011;23738;50.422;18.758;2022-08-01T06:50:41;4.15;;;3.37;;
37903;SDS011;23738;50.422;18.758;2022-08-01T06:53:07;5.65;;;3.72;;
37903;SDS011;23738;50.422;18.758;2022-08-01T06:55:33;8.15;;;3.10;;
37903;SDS011;23738;50.422;18.758;2022-08-01T06:57:59;6.70;;;3.58;;
37903;SDS011;23738;50.422;18.758;2022-08-01T07:00:25;5.92;;;2.87;;
37903;SDS011;23738;50.422;18.758;2022-08-01T07:02:56;5.58;;;3.17;;
37903;SDS011;23738;50.422;18.758;2022-08-01T07:05:21;5.35;;;3.50;;
37903;SDS011;23738;50.422;18.758;2022-08-01T07:07:48;3.72;;;2.85;;
37903;SDS011;23738;50.422;18.758;2022-08-01T07:10:14;6.17;;;2.85;;
37903;SDS011;23738;50.422;18.758;2022-08-01T07:12:41;3.70;;;2.77;;
37903;SDS011;23738;50.422;18.758;2022-08-01T07:15:11;5.53;;;2.90;;
37903;SDS011;23738;50.422;18.758;2022-08-01T07:17:43;5.65;;;2.98;;
37903;SDS011;23738;50.422;18.758;2022-08-01T07:20:08;5.53;;;2.98;;
37903;SDS011;23738;50.422;18.758;2022-08-01T07:22:36;2.80;;;2.50;;
37903;SDS011;23738;50.422;18.758;2022-08-01T07:25:03;4.20;;;2.22;;
37903;SDS011;23738;50.422;18.758;2022-08-01T07:27:31;5.53;;;2.47;;
37903;SDS011;23738;50.422;18.758;2022-08-01T07:29:57;4.85;;;2.45;;
37903;SDS011;23738;50.422;18.758;2022-08-01T07:32:23;4.87;;;2.12;;
37903;SDS011;23738;50.422;18.758;2022-08-01T07:34:49;4.03;;;2.95;;
37903;SDS011;23738;50.422;18.758;2022-08-01T07:37:14;4.33;;;2.42;;
37903;SDS011;23738;50.422;18.758;2022-08-01T07:39:40;3.62;;;2.92;;
37903;SDS011;23738;50.422;18.758;2022-08-01T07:42:06;4.85;;;2.85;;
37903;SDS011;23738;50.422;18.758;2022-08-01T07:44:32;4.72;;;2.98;;
37903;SDS011;23738;50.422;18.758;2022-08-01T07:46:58;5.15;;;2.60;;
37903;SDS011;23738;50.422;18.758;2022-08-01T07:49:24;9.55;;;2.80;;
37903;SDS011;23738;50.422;18.758;2022-08-01T07:51:50;6.33;;;2.70;;
37903;SDS011;23738;50.422;18.758;2022-08-01T07:54:15;4.70;;;3.02;;
37903;SDS011;23738;50.422;18.758;2022-08-01T07:56:41;6.78;;;2.50;;
37903;SDS011;23738;50.422;18.758;2022-08-01T07:59:07;6.15;;;2.50;;
37903;SDS011;23738;50.422;18.758;2022-08-01T08:01:33;4.70;;;2.10;;
37903;SDS011;23738;50.422;18.758;2022-08-01T08:03:59;4.53;;;2.77;;
37903;SDS011;23738;50.422;18.758;2022-08-01T08:06:24;5.25;;;2.60;;
37903;SDS011;23738;50.422;18.758;2022-08-01T08:08:50;11.28;;;2.80;;
37903;SDS011;23738;50.422;18.758;2022-08-01T08:11:18;4.58;;;2.22;;
37903;SDS011;23738;50.422;18.758;2022-08-01T08:13:44;4.12;;;2.25;;
37903;SDS011;23738;50.422;18.758;2022-08-01T08:16:10;11.00;;;2.87;;
37903;SDS011;23738;50.422;18.758;2022-08-01T08:18:35;7.27;;;2.70;;
37903;SDS011;23738;50.422;18.758;2022-08-01T08:21:03;2.87;;;2.10;;
37903;SDS011;23738;50.422;18.758;2022-08-01T08:23:29;3.92;;;2.80;;
37903;SDS011;23738;50.422;18.758;2022-08-01T08:26:13;6.60;;;3.00;;
37903;SDS011;23738;50.422;18.758;2022-08-01T08:28:39;13.77;;;2.73;;
37903;SDS011;23738;50.422;18.758;2022-08-01T08:31:05;7.33;;;2.47;;
37903;SDS011;23738;50.422;18.758;2022-08-01T08:33:31;4.70;;;2.62;;
37903;SDS011;23738;50.422;18.758;2022-08-01T08:35:56;6.15;;;2.58;;
37903;SDS011;23738;50.422;18.758;2022-08-01T08:38:22;4.47;;;2.30;;
37903;SDS011;23738;50.422;18.758;2022-08-01T08:40:50;5.50;;;1.90;;
37903;SDS011;23738;50.422;18.758;2022-08-01T08:43:16;3.37;;;2.30;;
37903;SDS011;23738;50.422;18.758;2022-08-01T08:45:43;4.42;;;1.70;;
37903;SDS011;23738;50.422;18.758;2022-08-01T08:48:11;3.30;;;1.85;;
37903;SDS011;23738;50.422;18.758;2022-08-01T08:50:38;4.28;;;2.20;;
37903;SDS011;23738;50.422;18.758;2022-08-01T08:53:06;4.00;;;1.77;;
37903;SDS011;23738;50.422;18.758;2022-08-01T08:55:35;4.42;;;2.20;;
37903;SDS011;23738;50.422;18.758;2022-08-01T08:58:03;6.10;;;2.20;;
37903;SDS011;23738;50.422;18.758;2022-08-01T09:00:31;2.27;;;1.55;;
37903;SDS011;23738;50.422;18.758;2022-08-01T09:02:59;4.58;;;2.00;;
37903;SDS011;23738;50.422;18.758;2022-08-01T09:05:25;4.80;;;1.70;;
37903;SDS011;23738;50.422;18.758;2022-08-01T09:07:51;6.08;;;1.90;;
37903;SDS011;23738;50.422;18.758;2022-08-01T09:10:17;5.25;;;2.08;;
37903;SDS011;23738;50.422;18.758;2022-08-01T09:13:01;4.20;;;2.17;;
37903;SDS011;23738;50.422;18.758;2022-08-01T09:15:43;4.08;;;1.90;;
37903;SDS011;23738;50.422;18.758;2022-08-01T09:21:09;3.22;;;2.22;;
37903;SDS011;23738;50.422;18.758;2022-08-01T09:23:51;2.67;;;1.92;;
37903;SDS011;23738;50.422;18.758;2022-08-01T09:26:20;6.25;;;1.82;;
37903;SDS011;23738;50.422;18.758;2022-08-01T09:28:55;3.67;;;1.90;;
37903;SDS011;23738;50.422;18.758;2022-08-01T09:31:21;30.05;;;4.50;;
37903;SDS011;23738;50.422;18.758;2022-08-01T09:33:51;6.70;;;2.45;;
37903;SDS011;23738;50.422;18.758;2022-08-01T09:36:26;8.10;;;2.33;;
37903;SDS011;23738;50.422;18.758;2022-08-01T09:39:14;7.78;;;2.12;;
37903;SDS011;23738;50.422;18.758;2022-08-01T09:41:40;8.20;;;2.77;;
37903;SDS011;23738;50.422;18.758;2022-08-01T09:44:06;6.03;;;2.52;;
37903;SDS011;23738;50.422;18.758;2022-08-01T09:46:32;6.20;;;2.25;;
37903;SDS011;23738;50.422;18.758;2022-08-01T09:48:59;4.05;;;2.60;;
37903;SDS011;23738;50.422;18.758;2022-08-01T09:51:31;4.87;;;2.22;;
37903;SDS011;23738;50.422;18.758;2022-08-01T09:54:03;7.65;;;2.50;;
37903;SDS011;23738;50.422;18.758;2022-08-01T09:56:38;5.92;;;2.30;;
37903;SDS011;23738;50.422;18.758;2022-08-01T09:59:10;157.67;;;15.88;;
37903;SDS011;23738;50.422;18.758;2022-08-01T10:01:44;190.47;;;16.05;;
37903;SDS011;23738;50.422;18.758;2022-08-01T10:04:18;32.30;;;5.70;;
37903;SDS011;23738;50.422;18.758;2022-08-01T10:06:48;13.15;;;3.85;;
37903;SDS011;23738;50.422;18.758;2022-08-01T10:09:26;3.25;;;2.30;;
37903;SDS011;23738;50.422;18.758;2022-08-01T10:11:55;3.83;;;2.58;;
37903;SDS011;23738;50.422;18.758;2022-08-01T10:14:24;4.10;;;2.02;;
37903;SDS011;23738;50.422;18.758;2022-08-01T10:16:52;5.10;;;2.50;;
37903;SDS011;23738;50.422;18.758;2022-08-01T10:19:24;3.37;;;2.55;;
37903;SDS011;23738;50.422;18.758;2022-08-01T10:21:53;4.05;;;2.60;;
37903;SDS011;23738;50.422;18.758;2022-08-01T10:24:21;36.70;;;5.65;;
37903;SDS011;23738;50.422;18.758;2022-08-01T10:26:49;7.50;;;3.05;;
37903;SDS011;23738;50.422;18.758;2022-08-01T10:29:20;6.22;;;4.45;;
37903;SDS011;23738;50.422;18.758;2022-08-01T10:31:46;10.70;;;3.67;;
37903;SDS011;23738;50.422;18.758;2022-08-01T10:34:13;2.47;;;2.15;;
37903;SDS011;23738;50.422;18.758;2022-08-01T10:36:45;4.78;;;2.35;;
37903;SDS011;23738;50.422;18.758;2022-08-01T10:39:12;5.22;;;2.67;;
37903;SDS011;23738;50.422;18.758;2022-08-01T10:41:39;4.40;;;2.52;;
37903;SDS011;23738;50.422;18.758;2022-08-01T10:44:06;5.92;;;2.10;;
37903;SDS011;23738;50.422;18.758;2022-08-01T10:46:34;3.98;;;2.50;;
37903;SDS011;23738;50.422;18.758;2022-08-01T10:49:13;4.67;;;2.30;;
37903;SDS011;23738;50.422;18.758;2022-08-01T10:51:39;3.62;;;2.10;;
37903;SDS011;23738;50.422;18.758;2022-08-01T10:54:06;2.52;;;2.33;;
37903;SDS011;23738;50.422;18.758;2022-08-01T10:56:46;3.80;;;2.62;;
37903;SDS011;23738;50.422;18.758;2022-08-01T10:59:15;2.62;;;2.12;;
37903;SDS011;23738;50.422;18.758;2022-08-01T11:02:02;4.55;;;2.22;;
37903;SDS011;23738;50.422;18.758;2022-08-01T11:07:07;4.05;;;2.15;;
37903;SDS011;23738;50.422;18.758;2022-08-01T11:09:42;4.80;;;1.82;;
37903;SDS011;23738;50.422;18.758;2022-08-01T11:12:13;2.12;;;1.82;;
37903;SDS011;23738;50.422;18.758;2022-08-01T11:17:37;3.65;;;1.95;;
37903;SDS011;23738;50.422;18.758;2022-08-01T11:20:14;3.77;;;1.82;;
37903;SDS011;23738;50.422;18.758;2022-08-01T11:30:45;3.98;;;2.22;;
37903;SDS011;23738;50.422;18.758;2022-08-01T11:33:47;2.17;;;1.77;;
37903;SDS011;23738;50.422;18.758;2022-08-01T11:38:43;3.35;;;2.10;;
37903;SDS011;23738;50.422;18.758;2022-08-01T11:41:15;2.37;;;1.80;;
37903;SDS011;23738;50.422;18.758;2022-08-01T11:46:48;3.25;;;2.92;;
37903;SDS011;23738;50.422;18.758;2022-08-01T11:54:52;2.22;;;1.55;;
37903;SDS011;23738;50.422;18.758;2022-08-01T11:59:56;3.45;;;1.65;;
37903;SDS011;23738;50.422;18.758;2022-08-01T12:02:25;2.05;;;1.52;;
37903;SDS011;23738;50.422;18.758;2022-08-01T12:05:04;1.75;;;1.50;;
37903;SDS011;23738;50.422;18.758;2022-08-01T12:07:34;3.42;;;1.85;;
37903;SDS011;23738;50.422;18.758;2022-08-01T12:12:32;76.47;;;8.28;;
37903;SDS011;23738;50.422;18.758;2022-08-01T12:15:04;16.50;;;3.20;;
37903;SDS011;23738;50.422;18.758;2022-08-01T12:17:37;13.83;;;2.75;;
37903;SDS011;23738;50.422;18.758;2022-08-01T12:20:06;3.85;;;1.62;;
37903;SDS011;23738;50.422;18.758;2022-08-01T12:22:35;2.52;;;1.50;;
37903;SDS011;23738;50.422;18.758;2022-08-01T12:25:05;3.33;;;1.77;;
37903;SDS011;23738;50.422;18.758;2022-08-01T12:27:35;3.10;;;1.75;;
37903;SDS011;23738;50.422;18.758;2022-08-01T12:30:08;6.40;;;1.98;;
37903;SDS011;23738;50.422;18.758;2022-08-01T12:32:36;1.72;;;1.60;;
37903;SDS011;23738;50.422;18.758;2022-08-01T12:35:06;3.12;;;2.02;;
37903;SDS011;23738;50.422;18.758;2022-08-01T12:37:52;6.03;;;2.00;;
37903;SDS011;23738;50.422;18.758;2022-08-01T12:40:24;2.65;;;1.82;;
37903;SDS011;23738;50.422;18.758;2022-08-01T12:42:54;3.42;;;1.65;;
37903;SDS011;23738;50.422;18.758;2022-08-01T12:45:30;3.67;;;2.02;;
37903;SDS011;23738;50.422;18.758;2022-08-01T12:47:59;2.80;;;2.00;;
37903;SDS011;23738;50.422;18.758;2022-08-01T12:50:26;3.20;;;1.85;;
37903;SDS011;23738;50.422;18.758;2022-08-01T12:52:55;5.55;;;1.95;;
37903;SDS011;23738;50.422;18.758;2022-08-01T12:55:23;9.60;;;8.83;;
37903;SDS011;23738;50.422;18.758;2022-08-01T12:58:08;4.15;;;3.85;;
37903;SDS011;23738;50.422;18.758;2022-08-01T13:03:05;2.15;;;1.45;;
37903;SDS011;23738;50.422;18.758;2022-08-01T13:08:18;3.08;;;1.60;;
37903;SDS011;23738;50.422;18.758;2022-08-01T13:10:45;1.65;;;1.40;;
37903;SDS011;23738;50.422;18.758;2022-08-01T13:13:12;2.98;;;1.82;;
37903;SDS011;23738;50.422;18.758;2022-08-01T13:15:40;4.15;;;1.37;;
37903;SDS011;23738;50.422;18.758;2022-08-01T13:18:25;1.57;;;1.30;;
37903;SDS011;23738;50.422;18.758;2022-08-01T13:21:15;2.37;;;1.30;;
37903;SDS011;23738;50.422;18.758;2022-08-01T13:29:20;3.52;;;1.40;;
37903;SDS011;23738;50.422;18.758;2022-08-01T13:31:56;3.60;;;1.57;;
37903;SDS011;23738;50.422;18.758;2022-08-01T13:34:34;4.28;;;1.90;;
37903;SDS011;23738;50.422;18.758;2022-08-01T13:36:58;3.58;;;1.50;;
37903;SDS011;23738;50.422;18.758;2022-08-01T13:39:27;4.65;;;1.30;;
37903;SDS011;23738;50.422;18.758;2022-08-01T13:42:06;3.27;;;1.40;;
37903;SDS011;23738;50.422;18.758;2022-08-01T13:44:33;1.57;;;1.40;;
37903;SDS011;23738;50.422;18.758;2022-08-01T13:46:59;1.65;;;1.45;;
37903;SDS011;23738;50.422;18.758;2022-08-01T13:49:25;3.45;;;1.40;;
37903;SDS011;23738;50.422;18.758;2022-08-01T13:51:50;2.08;;;1.00;;
37903;SDS011;23738;50.422;18.758;2022-08-01T13:54:16;3.58;;;1.20;;
37903;SDS011;23738;50.422;18.758;2022-08-01T13:56:42;2.72;;;1.50;;
37903;SDS011;23738;50.422;18.758;2022-08-01T13:59:08;1.87;;;1.00;;
37903;SDS011;23738;50.422;18.758;2022-08-01T14:01:34;3.10;;;1.10;;
37903;SDS011;23738;50.422;18.758;2022-08-01T14:04:01;1.65;;;1.20;;
37903;SDS011;23738;50.422;18.758;2022-08-01T14:06:27;2.77;;;1.10;;
37903;SDS011;23738;50.422;18.758;2022-08-01T14:08:53;4.20;;;1.12;;
37903;SDS011;23738;50.422;18.758;2022-08-01T14:11:19;2.80;;;1.57;;
37903;SDS011;23738;50.422;18.758;2022-08-01T14:13:46;1.20;;;1.10;;
37903;SDS011;23738;50.422;18.758;2022-08-01T14:16:11;1.62;;;1.17;;
37903;SDS011;23738;50.422;18.758;2022-08-01T14:18:37;6.53;;;1.10;;
37903;SDS011;23738;50.422;18.758;2022-08-01T14:21:03;2.83;;;1.00;;
37903;SDS011;23738;50.422;18.758;2022-08-01T14:23:29;1.57;;;1.30;;
37903;SDS011;23738;50.422;18.758;2022-08-01T14:25:55;1.12;;;0.98;;
37903;SDS011;23738;50.422;18.758;2022-08-01T14:28:20;3.55;;;1.12;;
37903;SDS011;23738;50.422;18.758;2022-08-01T14:30:46;3.35;;;1.12;;
37903;SDS011;23738;50.422;18.758;2022-08-01T14:33:12;2.30;;;1.20;;
37903;SDS011;23738;50.422;18.758;2022-08-01T14:35:39;2.30;;;1.05;;
37903;SDS011;23738;50.422;18.758;2022-08-01T14:38:06;2.75;;;1.20;;
37903;SDS011;23738;50.422;18.758;2022-08-01T14:40:32;6.83;;;1.50;;
37903;SDS011;23738;50.422;18.758;2022-08-01T14:42:59;2.15;;;1.35;;
37903;SDS011;23738;50.422;18.758;2022-08-01T14:45:26;2.85;;;1.20;;
37903;SDS011;23738;50.422;18.758;2022-08-01T14:47:52;1.30;;;1.20;;
37903;SDS011;23738;50.422;18.758;2022-08-01T14:50:19;1.60;;;1.50;;
37903;SDS011;23738;50.422;18.758;2022-08-01T14:52:44;2.27;;;1.42;;
37903;SDS011;23738;50.422;18.758;2022-08-01T14:55:11;1.95;;;1.50;;
37903;SDS011;23738;50.422;18.758;2022-08-01T14:57:38;2.72;;;1.27;;
37903;SDS011;23738;50.422;18.758;2022-08-01T15:00:06;2.37;;;1.50;;
37903;SDS011;23738;50.422;18.758;2022-08-01T15:02:37;3.05;;;1.30;;
37903;SDS011;23738;50.422;18.758;2022-08-01T15:05:03;1.72;;;1.30;;
37903;SDS011;23738;50.422;18.758;2022-08-01T15:07:29;3.40;;;1.50;;
37903;SDS011;23738;50.422;18.758;2022-08-01T15:09:55;3.47;;;1.22;;
37903;SDS011;23738;50.422;18.758;2022-08-01T15:12:21;1.90;;;1.20;;
37903;SDS011;23738;50.422;18.758;2022-08-01T15:14:47;2.52;;;1.25;;
37903;SDS011;23738;50.422;18.758;2022-08-01T15:17:13;4.62;;;1.42;;
37903;SDS011;23738;50.422;18.758;2022-08-01T15:19:40;10.32;;;1.40;;
37903;SDS011;23738;50.422;18.758;2022-08-01T15:22:06;5.37;;;1.30;;
37903;SDS011;23738;50.422;18.758;2022-08-01T15:24:32;2.42;;;1.25;;
37903;SDS011;23738;50.422;18.758;2022-08-01T15:26:58;1.67;;;1.47;;
37903;SDS011;23738;50.422;18.758;2022-08-01T15:29:24;2.30;;;1.80;;
37903;SDS011;23738;50.422;18.758;2022-08-01T15:31:50;2.80;;;1.77;;
37903;SDS011;23738;50.422;18.758;2022-08-01T15:34:15;3.47;;;1.80;;
37903;SDS011;23738;50.422;18.758;2022-08-01T15:36:41;2.87;;;1.55;;
37903;SDS011;23738;50.422;18.758;2022-08-01T15:39:08;4.22;;;2.20;;